Data for 09/22/2013

Time Sea-Level Adjusted Pressure Absolute Pressure Temperature Relative Humidity Dew Point   
(mb) (inHg) (mb) (inHg) (C) (F) (%) (C) (F)
00:05 1006 29.71 836 24.69 15.3 59.6 33 -0.6 30.8
00:10 1006 29.71 836 24.69 15.6 60 33 -0.5 31.1
00:15 1007 29.74 836 24.69 15.7 60.2 33 -0.4 31.3
00:20 1007 29.74 836 24.69 15.8 60.4 34 -0.1 31.7
00:25 1007 29.74 836 24.69 15.7 60.3 34 -0.1 31.8
00:30 1007 29.74 836 24.69 15.6 60.1 34 -0.2 31.6
00:35 1007 29.74 836 24.69 15.5 59.9 34 -0.1 31.8
00:40 1007 29.74 836 24.69 15.3 59.6 34 -0.3 31.5
00:45 1007 29.74 836 24.69 15.2 59.3 36 0.3 32.5
00:50 1007 29.74 836 24.69 14.8 58.7 37 0.3 32.6
00:55 1007 29.74 836 24.69 14.4 57.9 41 1.5 34.8
01:00 1007 29.74 836 24.69 13.7 56.7 44 1.9 35.4
01:05 1007 29.74 836 24.69 13.3 56 45 1.7 35.1
01:10 1007 29.74 836 24.69 13.3 55.9 43 1.2 34.1
01:15 1007 29.74 836 24.69 13.6 56.4 42 1 33.8
01:20 1007 29.74 837 24.72 13.7 56.6 41 0.6 33.1
01:25 1007 29.74 837 24.72 13.7 56.7 41 0.6 33.2
01:30 1007 29.74 837 24.72 13.7 56.7 40 0.5 32.9
01:35 1008 29.77 837 24.72 13.7 56.7 41 0.7 33.3
01:40 1008 29.77 837 24.72 13.6 56.5 41 0.6 33.1
01:45 1008 29.77 837 24.72 13.6 56.5 40 0.4 32.7
01:50 1008 29.77 837 24.72 13.7 56.6 40 0.4 32.8
01:55 1008 29.77 837 24.72 13.7 56.7 39 0.2 32.4
02:00 1008 29.77 837 24.72 13.8 56.8 39 -0 32
02:05 1008 29.77 837 24.72 13.9 57 39 0.2 32.3
02:10 1008 29.77 837 24.72 14 57.1 40 0.5 32.9
02:15 1008 29.77 837 24.72 13.9 57 39 0.4 32.7
02:20 1008 29.77 837 24.72 14 57.1 38 0 32.1
02:25 1008 29.77 837 24.72 14 57.2 38 0 32
02:30 1008 29.77 837 24.72 14 57.2 39 0.5 32.9
02:35 1008 29.77 837 24.72 13.9 57 39 0.1 32.2
02:40 1008 29.77 837 24.72 13.7 56.6 42 1.1 33.9
02:45 1008 29.77 837 24.72 13.3 55.9 42 0.8 33.5
02:50 1008 29.77 837 24.72 13.3 55.9 42 0.7 33.2
02:55 1008 29.77 837 24.72 13.3 56 39 -0.3 31.4
03:00 1008 29.77 837 24.72 13.6 56.4 40 0.3 32.5
03:05 1008 29.77 837 24.72 13.4 56.1 40 0.3 32.5
03:10 1008 29.77 837 24.72 13.3 56 40 -0.1 31.9
03:15 1008 29.77 837 24.72 13.3 56 40 0.1 32.2
03:20 1008 29.77 837 24.72 13.2 55.8 42 0.5 33
03:25 1008 29.77 837 24.72 13 55.4 41 0.2 32.3
03:30 1008 29.77 837 24.72 13 55.4 41 0.2 32.4
03:35 1008 29.77 838 24.75 12.9 55.3 42 0.3 32.6
03:40 1008 29.77 838 24.75 12.8 55 42 0.4 32.6
03:45 1008 29.77 838 24.75 12.8 55 43 0.7 33.2
03:50 1008 29.77 838 24.75 12.6 54.6 44 0.8 33.5
03:55 1008 29.77 838 24.75 12.5 54.5 44 0.5 32.8
04:00 1008 29.77 838 24.75 12.5 54.5 44 0.8 33.4
04:05 1008 29.77 838 24.75 12.5 54.4 45 0.9 33.6
04:10 1008 29.77 838 24.75 12.2 54 46 0.9 33.7
04:15 1008 29.77 838 24.75 12.2 53.9 46 1.1 33.9
04:20 1009 29.8 838 24.75 12.1 53.8 47 1.2 34.2
04:25 1008 29.77 838 24.75 11.7 53.1 49 1.3 34.3
04:30 1009 29.8 838 24.75 11.6 52.8 49 1.3 34.4
04:35 1009 29.8 838 24.75 11.4 52.4 50 1.4 34.6
04:40 1009 29.8 838 24.75 11.2 52.2 49 0.8 33.5
04:45 1009 29.8 838 24.75 11.6 52.8 48 1.1 34
04:50 1009 29.8 838 24.75 11.3 52.3 49 1.1 34
04:55 1009 29.8 838 24.75 11.5 52.6 48 1 33.8
05:00 1008 29.77 838 24.75 11.5 52.7 49 1.2 34.1
05:05 1008 29.77 838 24.75 11.5 52.7 48 1 33.9
05:10 1008 29.77 838 24.75 11.5 52.6 49 1.3 34.3
05:15 1008 29.77 838 24.75 11.2 52.1 51 1.4 34.5
05:20 1008 29.77 838 24.75 11 51.9 51 1.3 34.3
05:25 1008 29.77 838 24.75 11.2 52.2 47 0.5 32.9
05:30 1008 29.77 838 24.75 11.5 52.7 47 0.7 33.3
05:35 1008 29.77 838 24.75 11.4 52.6 48 0.9 33.6
05:40 1008 29.77 837 24.72 11.3 52.3 50 1.2 34.1
05:45 1008 29.77 837 24.72 10.7 51.2 54 1.8 35.3
05:50 1008 29.77 838 24.75 10.2 50.4 54 1.4 34.5
05:55 1008 29.77 838 24.75 9.9 49.8 56 1.7 35
06:00 1008 29.77 838 24.75 9.8 49.6 55 1.1 34
06:05 1008 29.77 837 24.72 10 49.9 53 1 33.7
06:10 1008 29.77 837 24.72 10.2 50.4 52 0.9 33.6
06:15 1008 29.77 837 24.72 10.3 50.5 53 1.2 34.2
06:20 1008 29.77 837 24.72 9.9 49.8 54 1.1 34
06:25 1008 29.77 837 24.72 9.8 49.6 57 1.7 35
06:30 1008 29.77 837 24.72 9.8 49.7 54 0.9 33.6
06:35 1008 29.77 837 24.72 10.2 50.3 53 1 33.7
06:40 1008 29.77 837 24.72 10.3 50.5 53 1 33.9
06:45 1008 29.77 837 24.72 10.2 50.4 53 1.2 34.1
06:50 1008 29.77 837 24.72 10.2 50.3 54 1.2 34.2
06:55 1008 29.77 837 24.72 10.1 50.3 54 1.3 34.4
07:00 1008 29.77 837 24.72 10.1 50.1 55 1.5 34.8
07:05 1008 29.77 837 24.72 9.9 49.8 55 1.4 34.6
07:10 1008 29.77 837 24.72 10 49.9 55 1.3 34.4
07:15 1008 29.77 837 24.72 10.2 50.3 54 1.4 34.5
07:20 1008 29.77 837 24.72 10.3 50.5 54 1.3 34.4
07:25 1008 29.77 837 24.72 10.4 50.7 54 1.6 34.8
07:30 1008 29.77 837 24.72 10.5 50.9 53 1.3 34.4
07:35 1008 29.77 837 24.72 10.6 51.1 52 1.3 34.3
07:40 1008 29.77 837 24.72 10.6 51.2 53 1.5 34.7
07:45 1008 29.77 837 24.72 10.6 51.1 53 1.6 34.9
07:50 1008 29.77 837 24.72 10.6 51.2 53 1.6 34.8
07:55 1008 29.77 837 24.72 10.8 51.4 53 1.6 34.9
08:00 1008 29.77 837 24.72 10.9 51.5 52 1.5 34.7
08:05 1008 29.77 837 24.72 10.9 51.7 51 1.2 34.2
08:10 1008 29.77 837 24.72 11.3 52.3 50 1.4 34.5
08:15 1008 29.77 837 24.72 11.6 52.8 49 1.3 34.3
08:20 1008 29.77 837 24.72 11.9 53.4 49 1.6 34.9
08:25 1008 29.77 837 24.72 12.4 54.4 46 1.1 33.9
08:30 1008 29.77 837 24.72 13.2 55.7 45 1.5 34.6
08:35 1008 29.77 838 24.75 13.1 55.6 44 1.2 34.2
08:40 1008 29.77 837 24.72 13.8 56.9 41 0.8 33.5
08:45 1008 29.77 838 24.75 14.4 57.8 41 1.4 34.5
08:50 1008 29.77 837 24.72 14 57.2 43 1.6 34.8
08:55 1008 29.77 837 24.72 14.4 58 40 1 33.8
09:00 1008 29.77 837 24.72 15.4 59.7 36 0.6 33.1
09:05 1008 29.77 837 24.72 15.5 59.9 37 0.8 33.4
09:10 1008 29.77 837 24.72 15.7 60.2 35 0.3 32.5
09:15 1008 29.77 837 24.72 16 60.9 34 0.1 32.2
09:20 1008 29.77 837 24.72 16.3 61.3 34 0.5 32.9
09:25 1008 29.77 837 24.72 16.3 61.4 34 0.5 32.8
09:30 1008 29.77 837 24.72 16.5 61.6 33 0.3 32.6
09:35 1008 29.77 837 24.72 16.6 62 34 0.6 33.1
09:40 1008 29.77 837 24.72 16.7 62.1 34 0.8 33.4
09:45 1008 29.77 837 24.72 16.9 62.4 33 0.6 33.1
09:50 1008 29.77 837 24.72 17 62.6 34 1.1 34.1
09:55 1008 29.77 837 24.72 16.7 62.1 35 1.1 34.1
10:00 1008 29.77 837 24.72 16.5 61.6 35 1.1 34
10:05 1008 29.77 837 24.72 16.5 61.8 36 1.5 34.7
10:10 1008 29.77 837 24.72 17 62.6 34 1.1 33.9
10:15 1008 29.77 837 24.72 17.3 63.1 35 1.7 35
10:20 1008 29.77 837 24.72 17.5 63.6 36 2.4 36.4
10:25 1008 29.77 837 24.72 17.9 64.2 35 2.3 36.1
10:30 1008 29.77 837 24.72 17.6 63.6 37 2.8 37.1
10:35 1008 29.77 837 24.72 17.8 64 34 1.8 35.3
10:40 1008 29.77 837 24.72 18 64.4 34 2 35.6
10:45 1008 29.77 837 24.72 18 64.4 33 1.8 35.2
10:50 1008 29.77 837 24.72 18.6 65.5 35 2.9 37.2
10:55 1008 29.77 837 24.72 18.6 65.4 33 2.3 36.1
11:00 1008 29.77 837 24.72 18.7 65.7 34 2.5 36.6
11:05 1008 29.77 837 24.72 18.5 65.3 34 2.4 36.3
11:10 1008 29.77 837 24.72 18.4 65.1 34 2.3 36.1
11:15 1008 29.77 837 24.72 18.2 64.8 34 2.3 36.1
11:20 1008 29.77 837 24.72 18.1 64.6 33 1.8 35.3
11:25 1008 29.77 837 24.72 18.6 65.6 30 1 33.8
11:30 1008 29.77 837 24.72 18.8 65.8 31 1.3 34.3
11:35 1008 29.77 837 24.72 18.8 65.8 32 1.8 35.3
11:40 1008 29.77 837 24.72 18.9 65.9 32 1.8 35.2
11:45 1008 29.77 837 24.72 18 64.4 30 0.5 32.9
11:50 1008 29.77 837 24.72 18.7 65.7 29 0.4 32.7
11:55 1008 29.77 837 24.72 18.5 65.3 30 0.9 33.7
12:00 1008 29.77 837 24.72 18.7 65.6 32 1.6 34.9
12:05 1008 29.77 837 24.72 19.3 66.7 31 1.7 35
12:10 1007 29.74 837 24.72 19.3 66.8 33 2.8 37
12:15 1007 29.74 837 24.72 19.8 67.6 30 1.7 35.1
12:20 1007 29.74 837 24.72 20.2 68.3 28 1.4 34.5
12:25 1007 29.74 837 24.72 20 68.1 29 1.5 34.6
12:30 1007 29.74 837 24.72 20.2 68.4 27 0.8 33.4
12:35 1007 29.74 837 24.72 20.4 68.8 28 1.5 34.7
12:40 1007 29.74 836 24.69 20.5 68.9 29 2 35.7
12:45 1007 29.74 836 24.69 19.7 67.5 30 1.7 35.1
12:50 1007 29.74 836 24.69 19.9 67.8 29 1.4 34.5
12:55 1007 29.74 836 24.69 19.3 66.7 28 0.7 33.2
13:00 1007 29.74 836 24.69 19.7 67.4 30 1.7 35.1
13:05 1007 29.74 836 24.69 19.9 67.9 30 1.9 35.4
13:10 1007 29.74 836 24.69 19.9 67.8 30 2.2 35.9
13:15 1007 29.74 836 24.69 20.6 69.1 30 2.6 36.6
13:20 1007 29.74 836 24.69 20.6 69.1 30 2.6 36.7
13:25 1007 29.74 836 24.69 20.1 68.1 31 2.4 36.4
13:30 1007 29.74 836 24.69 19.4 66.9 31 2 35.6
13:35 1007 29.74 836 24.69 19.5 67.1 31 1.9 35.4
13:40 1007 29.74 836 24.69 20 68 31 2.4 36.4
13:45 1007 29.74 836 24.69 19.8 67.7 31 2.2 35.9
13:50 1007 29.74 836 24.69 19.3 66.8 32 2.4 36.4
13:55 1007 29.74 836 24.69 19 66.2 32 2.3 36.1
14:00 1007 29.74 836 24.69 19.7 67.5 31 2.1 35.8
14:05 1007 29.74 836 24.69 20.4 68.7 30 2.4 36.4
14:10 1007 29.74 836 24.69 20.3 68.5 29 1.9 35.3
14:15 1007 29.74 836 24.69 20.4 68.7 28 1.6 34.9
14:20 1007 29.74 836 24.69 20.6 69.1 27 1.3 34.3
14:25 1007 29.74 836 24.69 20.9 69.6 28 1.7 35.1
14:30 1007 29.74 836 24.69 20.9 69.6 27 1.6 34.9
14:35 1007 29.74 836 24.69 20.7 69.2 28 1.5 34.7
14:40 1006 29.71 836 24.69 20.6 69.2 28 1.6 34.8
14:45 1006 29.71 836 24.69 20.9 69.6 27 1.4 34.5
14:50 1006 29.71 836 24.69 21.1 70 27 1.7 35
14:55 1006 29.71 836 24.69 21.1 69.9 27 1.6 34.9
15:00 1006 29.71 835 24.66 21.3 70.3 26 1.4 34.6
15:05 1006 29.71 835 24.66 21.3 70.3 27 1.9 35.5
15:10 1006 29.71 835 24.66 20 67.9 30 1.8 35.2
15:15 1006 29.71 835 24.66 19.8 67.6 29 1.4 34.5
15:20 1006 29.71 835 24.66 19.8 67.7 28 1.1 34
15:25 1006 29.71 835 24.66 21 69.8 27 1.5 34.6
15:30 1006 29.71 835 24.66 21.5 70.6 26 1.6 34.8
15:35 1006 29.71 835 24.66 21.2 70.2 27 1.9 35.4
15:40 1006 29.71 835 24.66 21.2 70.2 27 1.6 34.9
15:45 1006 29.71 835 24.66 21.7 71.1 27 1.9 35.5
15:50 1006 29.71 835 24.66 21.6 70.8 27 1.8 35.2
15:55 1006 29.71 835 24.66 21.1 70 27 1.6 34.9
16:00 1006 29.71 835 24.66 21 69.7 27 1.5 34.7
16:05 1006 29.71 835 24.66 21.1 69.9 28 1.9 35.4
16:10 1006 29.71 836 24.69 20.8 69.4 28 1.6 34.8
16:15 1006 29.71 836 24.69 20.5 68.8 29 1.9 35.4
16:20 1006 29.71 836 24.69 19.9 67.8 30 2 35.7
16:25 1006 29.71 836 24.69 19.5 67 33 3 37.5
16:30 1007 29.74 836 24.69 18.6 65.5 40 4.8 40.7
16:35 1007 29.74 836 24.69 17.8 64.1 43 5.1 41.2
16:40 1007 29.74 836 24.69 17 62.5 45 5 41
16:45 1007 29.74 836 24.69 16.2 61.2 46 4.6 40.2
16:50 1007 29.74 836 24.69 15.7 60.2 47 4.4 40
16:55 1007 29.74 837 24.72 15.3 59.5 50 4.9 40.9
17:00 1008 29.77 837 24.72 14.8 58.7 51 4.8 40.6
17:05 1008 29.77 837 24.72 14.7 58.4 51 4.7 40.5
17:10 1008 29.77 838 24.75 14.7 58.5 52 5 41
17:15 1008 29.77 838 24.75 14.5 58.2 55 5.6 42.1
17:20 1008 29.77 838 24.75 14.1 57.5 60 6.6 43.8
17:25 1009 29.8 838 24.75 13.5 56.3 65 7 44.6
17:30 1009 29.8 838 24.75 13.2 55.7 66 7.1 44.7
17:35 1009 29.8 838 24.75 13.1 55.6 65 6.8 44.2
17:40 1009 29.8 838 24.75 13 55.3 64 6.4 43.6
17:45 1009 29.8 838 24.75 12.9 55.2 67 6.9 44.3
17:50 1009 29.8 839 24.78 12.8 55.1 67 7 44.6
17:55 1010 29.83 839 24.78 12.6 54.7 69 7.2 44.9
18:00 1010 29.83 839 24.78 12.3 54.1 70 7 44.5
18:05 1010 29.83 839 24.78 12 53.7 72 7.2 45
18:10 1010 29.83 839 24.78 11.9 53.5 71 7 44.6
18:15 1010 29.83 839 24.78 11.8 53.2 72 7 44.6
18:20 1010 29.83 839 24.78 11.7 53.1 73 7 44.6
18:25 1010 29.83 839 24.78 11.7 53 73 7.1 44.7
18:30 1010 29.83 839 24.78 11.7 53 75 7.5 45.5
18:35 1010 29.83 839 24.78 11.6 52.8 75 7.3 45.2
18:40 1010 29.83 839 24.78 11.4 52.6 76 7.3 45.2
18:45 1010 29.83 839 24.78 11.4 52.5 76 7.3 45.2
18:50 1010 29.83 839 24.78 11.3 52.3 75 7 44.6
18:55 1010 29.83 839 24.78 11.3 52.3 76 7.2 45
19:00 1010 29.83 839 24.78 11.3 52.3 74 7 44.5
19:05 1010 29.83 839 24.78 11.2 52.2 75 7.1 44.7
19:10 1010 29.83 839 24.78 11.2 52.2 77 7.3 45.1
19:15 1010 29.83 839 24.78 11.1 51.9 77 7.2 44.9
19:20 1010 29.83 839 24.78 10.8 51.5 77 7 44.5
19:25 1010 29.83 839 24.78 10.6 51 78 6.9 44.4
19:30 1010 29.83 839 24.78 10.7 51.3 77 7 44.5
19:35 1010 29.83 839 24.78 10.7 51.2 78 6.9 44.5
19:40 1010 29.83 839 24.78 10.7 51.3 77 6.9 44.4
19:45 1010 29.83 839 24.78 10.8 51.4 79 7.3 45.1
19:50 1010 29.83 839 24.78 10.9 51.6 77 7.1 44.7
19:55 1010 29.83 839 24.78 11 51.8 76 7 44.7
20:00 1010 29.83 839 24.78 11.1 52 75 6.9 44.3
20:05 1010 29.83 839 24.78 11.1 52 76 7.1 44.8
20:10 1010 29.83 839 24.78 10.9 51.6 78 7.3 45.1
20:15 1010 29.83 839 24.78 10.7 51.2 77 6.8 44.2
20:20 1010 29.83 839 24.78 10.8 51.4 75 6.6 44
20:25 1010 29.83 839 24.78 11 51.7 76 6.9 44.4
20:30 1010 29.83 839 24.78 11.1 52 73 6.5 43.7
20:35 1010 29.83 839 24.78 11.2 52.2 75 7 44.6
20:40 1010 29.83 839 24.78 11.3 52.3 75 7.1 44.7
20:45 1010 29.83 840 24.81 11.1 52.1 76 7.1 44.8
20:50 1010 29.83 840 24.81 11.2 52.1 75 6.8 44.3
20:55 1011 29.85 840 24.81 11.2 52.2 74 6.8 44.2
21:00 1011 29.85 840 24.81 11.1 52 76 7.1 44.7
21:05 1011 29.85 840 24.81 11 51.8 77 7.2 44.9
21:10 1011 29.85 840 24.81 10.9 51.7 78 7.2 45
21:15 1011 29.85 840 24.81 10.7 51.3 82 7.8 46
21:20 1011 29.85 840 24.81 10.6 51 84 8 46.4
21:25 1011 29.85 840 24.81 10.4 50.7 85 8 46.3
21:30 1011 29.85 840 24.81 10.2 50.4 81 7.2 44.9
21:35 1011 29.85 840 24.81 10.1 50.1 80 6.8 44.3
21:40 1011 29.85 840 24.81 9.9 49.7 81 6.7 44
21:45 1011 29.85 840 24.81 9.7 49.5 81 6.6 43.9
21:50 1011 29.85 841 24.83 9.6 49.2 81 6.5 43.6
21:55 1012 29.88 841 24.83 9.5 49 82 6.6 43.8
22:00 1012 29.88 841 24.83 9.4 48.8 83 6.6 43.9
22:05 1012 29.88 841 24.83 9.2 48.6 81 6.1 43
22:10 1012 29.88 841 24.83 9.1 48.4 82 6.2 43.2
22:15 1012 29.88 841 24.83 8.9 48 84 6.3 43.3
22:20 1012 29.88 841 24.83 8.6 47.5 84 6.1 43
22:25 1012 29.88 841 24.83 8.4 47.1 85 6 42.8
22:30 1012 29.88 841 24.83 8.3 46.9 84 5.8 42.4
22:35 1012 29.88 841 24.83 8.2 46.8 86 6.1 43
22:40 1012 29.88 841 24.83 8.1 46.6 87 6.1 43
22:45 1012 29.88 842 24.86 8 46.4 87 5.9 42.7
22:50 1012 29.88 842 24.86 7.9 46.2 86 5.6 42.1
22:55 1012 29.88 842 24.86 7.7 45.9 87 5.6 42.1
23:00 1012 29.88 842 24.86 7.6 45.6 85 5.2 41.4
23:05 1012 29.88 842 24.86 7.4 45.4 86 5.2 41.3
23:10 1012 29.88 841 24.83 7.3 45.1 84 4.8 40.6
23:15 1012 29.88 841 24.83 7.3 45.2 86 5.1 41.3
23:20 1012 29.88 841 24.83 7.3 45.2 86 5.1 41.3
23:25 1012 29.88 841 24.83 7.3 45.2 86 5.2 41.3
23:30 1012 29.88 841 24.83 7.3 45.1 86 5 41.1
23:35 1012 29.88 841 24.83 7.3 45.2 84 4.9 40.7
23:40 1012 29.88 841 24.83 7.4 45.3 83 4.7 40.5
23:45 1012 29.88 841 24.83 7.5 45.4 83 4.7 40.5
23:50 1012 29.88 841 24.83 7.5 45.4 81 4.5 40
23:55 1012 29.88 841 24.83 7.5 45.5 81 4.5 40
24:00 1012 29.88 841 24.83 7.6 45.7 81 4.5 40.1